x

Buoy A01 - Mass. Bay/stellwagen (44029) Wave Buoy

9:04am - Fri 28th Jul 2017 All times are EDT. -4 hours from GMT.

  • Sig Wave height 1.6ft
  • Peak Period 8s
  • Wind
    7mph, 7mph gusts
  • Sea Temp 62°f
  • 空気 Temp 66°f
  • Sea Pressure 1009.9mb
  • Buoy A01 - Mass. Bay/stellwagen
  • Buoy A01 - Mass. Bay/stellwagen

More Historic Weather Station data

Upgrade to MSW Pro to gain access to the past 30 days of data for over 8000 Wavebouys and Weather Stations around the globe.

Join Pro

Comparision Forecast

View Surf forecast
   
Fri 07/28 9:04am 1.6ft 8s 7 7 mph 1009.9mb 62f 66f
8:04am 1.6ft 8s 9 11 mph 1009.9mb 62f 64f
7:04am 1.6ft 8s 9 9 mph 1009.6mb 62f 64f
6:04am 2ft 8s 11 11 mph 1009.4mb 63f 64f
5:04am 2ft 8s 11 11 mph 1009.1mb 62f 64f
4:04am 2ft 8s 11 11 mph 1008.7mb 62f 64f
3:04am 2.5ft 8s 9 9 mph 1008.8mb 62f 64f
2:04am 2ft 8s 11 11 mph 1009mb 62f 64f
1:04am 2ft 8s 11 13 mph 1009.4mb 62f 64f
12:04am 2.5ft 8s 11 13 mph 1010mb 62f 65f
Thu 07/27 11:04pm 2ft 8s 16 18 mph 1010.2mb 62f 65f
10:04pm 2ft 8s 11 13 mph 1010.6mb 62f 65f
9:04pm 2.5ft 8s 13 13 mph 1010.8mb 62f 65f
8:04pm 2.5ft 6s 9 11 mph 1010.8mb 63f 65f
7:04pm 2.5ft 8s 13 16 mph 1010.9mb 63f 65f
6:04pm 2.5ft 8s 16 18 mph 1010.7mb 63f 66f
5:04pm 2.5ft 8s 11 13 mph 1011.3mb 62f 65f
4:04pm 2.5ft 8s 9 11 mph 1011.6mb 63f 65f
3:04pm 2.5ft 8s 13 16 mph 1012.1mb 63f 66f
2:04pm 2.5ft 8s 9 11 mph 1012.7mb 63f 65f
1:04pm 2ft 8s 13 13 mph 1013.2mb 63f 65f
12:04pm 2.5ft 8s 11 13 mph 1014mb 63f 65f
11:04am 2ft 8s 11 13 mph 1014.8mb 63f 65f
10:04am 2ft 8s 11 13 mph 1015.3mb 63f 64f
9:04am 1.6ft 8s 11 13 mph 1016mb 63f 64f
8:04am 2.5ft 8s 13 13 mph 1016.3mb 62f 63f
7:04am 2.5ft 8s 11 13 mph 1016.2mb 62f 63f
6:04am 2.5ft 8s 13 16 mph 1016.5mb 63f 63f
5:04am 2.5ft 8s 11 13 mph 1016.7mb 62f 63f
4:04am 2.5ft 8s 13 16 mph 1016.7mb 62f 63f
3:04am 2.5ft 8s 11 13 mph 1016.7mb 62f 63f
2:04am 3.5ft 8s 16 18 mph 1017.5mb 62f 64f
1:04am 2.5ft 8s 13 16 mph 1017.8mb 62f 64f
12:04am 2.5ft 8s 13 16 mph 1018.5mb 63f 65f
Wed 07/26 11:04pm 2.5ft 8s 13 13 mph 1018.9mb 63f 65f
10:04pm 2.5ft 8s 11 13 mph 1019.4mb 63f 65f
9:04pm 2ft 8s 11 11 mph 1019.5mb 64f 65f
8:04pm 2ft 8s 9 11 mph 1019.7mb 63f 65f
7:04pm 2.5ft 8s 9 11 mph 1019.6mb 63f 65f
6:04pm 2.5ft 8s 7 9 mph 1019.7mb 63f 66f
5:04pm 2.5ft 8s 7 9 mph 1020.1mb 63f 66f
4:04pm 3ft 8s 4 7 mph 1020.8mb 62f 66f
3:04pm 2.5ft 8s 4 7 mph 1021.1mb 63f 67f
2:04pm 2.5ft 8s 2 4 mph 1021.4mb 63f 67f
1:04pm 2.5ft 8s 2 2 mph 1021.9mb 63f 66f
12:04pm 2.5ft 8s 2 4 mph 1022.3mb 62f 66f
11:04am 2.5ft 8s 2 4 mph 1023mb 62f 64f
10:04am 2.5ft 8s 2 4 mph 1023.2mb 61f 64f
9:04am 2.5ft 8s 2 2 mph 1022.8mb 62f 62f
8:04am 2.5ft 8s 4 4 mph 1023mb 61f 62f
7:04am 2.5ft 8s 7 7 mph 1022.7mb 61f 63f
6:04am 2.5ft 8s 7 7 mph 1022.4mb 62f 61f
5:04am 2.5ft 8s 7 7 mph 1021.9mb 62f 61f
4:04am 3.5ft 8s 9 11 mph 1021.7mb 62f 62f
3:04am 3ft 8s 7 9 mph 1021.4mb 62f 62f
2:04am 3.5ft 8s 7 9 mph 1021.9mb 62f 62f
1:04am 3ft 8s 7 9 mph 1022mb 63f 63f
12:04am 3ft 8s 7 9 mph 1022.1mb 63f 63f
Tue 07/25 11:04pm 3.5ft 8s 4 7 mph 1021.9mb 62f 62f
10:04pm 4ft 6s 4 4 mph 1022mb 61f 61f
9:04pm 3.5ft 8s 2 2 mph 1021.7mb 61f 61f
8:04pm 3.5ft 6s 4 4 mph 1021.6mb 61f 62f
7:04pm 4.5ft 8s 4 4 mph 1021.1mb 62f 63f
6:04pm 4.5ft 8s 4 4 mph 1020.6mb 62f 64f
5:04pm 4ft 8s 7 9 mph 1020.6mb 61f 62f
4:04pm 5ft 8s 9 11 mph 1020.5mb 61f 62f
3:04pm 5ft 8s 13 16 mph 1019.9mb 61f 62f
2:04pm 5ft 8s 11 13 mph 1019.3mb 61f 61f
1:04pm 6ft 8s 13 16 mph 1019.1mb 60f 61f
12:04pm 6.5ft 8s 16 20 mph 1018.8mb 60f 61f
11:04am 6ft 8s 18 20 mph 1018.4mb 60f 61f
10:04am 5.5ft 8s 16 18 mph 1018.5mb 60f 60f
9:04am 5.5ft 8s 16 18 mph 1018.1mb 60f 59f
8:04am 6.5ft 8s 16 20 mph 1017.3mb 60f 60f
7:04am 6ft 8s 16 18 mph 1016.7mb 60f 59f
6:04am 7ft 8s 18 20 mph 1016.1mb 60f 59f
5:04am 7.5ft 8s 18 20 mph 1015.1mb 60f 60f
4:04am 7ft 8s 16 20 mph 1014.8mb 59f 59f
3:04am 8.5ft 8s 18 22 mph 1014.1mb 60f 58f
2:04am 9ft 8s 22 27 mph 1014.1mb 59f 58f
1:04am 9.5ft 8s 20 25 mph 1014mb 60f 60f
12:04am 8ft 8s 20 25 mph 1013.6mb 60f 59f
Mon 07/24 11:04pm 8.5ft 8s 20 25 mph 1012.9mb 60f 59f
10:04pm 8ft 6s 20 22 mph 1012.7mb 60f 59f
9:04pm 7.5ft 6s 22 27 mph 1012.3mb 60f 60f
8:04pm 8ft 6s 25 29 mph 1011.6mb 61f 60f
7:04pm 8ft 6s 27 34 mph 1011.2mb 62f 60f
6:04pm 7ft 6s 27 34 mph 1011.2mb 62f 60f
5:04pm 6ft 6s 27
mph
1011mb 62f 59f
4:04pm 6ft 6s 29
mph
1011mb 62f 58f